Tiempo atmosférico en la estación meteorológica de Olivenza, Badajoz (93 m.)



Fecha
DESCASC
Temp. máxima en grados centígrados (hora)
DESCASC
Temp. mínima en grados centígrados (hora)
DESCASC
Temp. media en grados centígrados
DESCASC
Racha de viento máxima en m/sg (hora)
DESCASC
Velocidad máxima media en intervalos de 10 minutos(hora)
DESCASC
Precipitaciones diarias en mm
DESCASC
Precipitaciones de 00:00 a 06:00 en mm
DESCASC
Precipitaciones de 06:00 a 12:00 en mm
DESCASC
Precipitaciones de 12:00 a 18:00 en mm
DESCASC
Precipitaciones de 18:00 a 24:00 en mm
DESCASC
26-11-2020 11.9 (15:50) 8 (21:40) 9.9 9.44 (12:30) 6.39 (12:30) 9.6 0.4 9 0.2 0
25-11-2020 15.8 (13:40) 9.4 (23:59) 12.6 14.17 (09:20) 8.89 (09:20) 11.4 0 7.6 0.2 3.6
24-11-2020 17.4 (15:30) 7 (08:20) 12.2 7.5 (16:00) 3.89 (15:40) 0 0 0 0 0
23-11-2020 17.1 (16:10) 5.3 (08:40) 11.2 4.17 (15:40) 3.89 (02:30) 0 0 0 0 0
22-11-2020 19.2 (14:50) 6.7 (00:00) 13 7.78 (14:20) 5.28 (14:20) 0 0 0 0 0
21-11-2020 18.8 (15:40) 5.7 (00:00) 12.2 7.5 (11:50) 6.39 (09:10) 0 0 0 0 0
20-11-2020 20.8 (15:10) 9 (00:00) 14.9 8.89 (16:30) 6.67 (16:30) 0 0 0 0 0
19-11-2020 22.3 (15:40) 9.6 (00:00) 15.9 10.83 (13:40) 8.89 (13:40) 0.2 0.2 0 0 0
18-11-2020 21.2 (16:10) 8.2 (00:00) 14.7 5 (14:10) 4.17 (22:40) 0.2 0.2 0 0 0
17-11-2020 16.2 (16:30) 9.8 (00:00) 13 5.83 (09:50) 4.72 (10:20) 0.2 0.2 0 0 0
16-11-2020 20.6 (14:50) 13.8 (00:00) 17.2 5.28 (00:10) 3.61 (00:10) 0 0 0 0 0
15-11-2020 23.7 (15:10) 15.1 (00:00) 19.4 9.17 (13:00) 6.67 (12:50) 0 0 0 0 0
14-11-2020 20.5 (15:50) 14.7 (00:00) 17.6 8.33 (12:50) 5.56 (11:50) 0.8 0 0.6 0 0.2
13-11-2020 18.1 (16:00) 8.6 (00:00) 13.4 4.17 (13:50) 3.33 (06:00) 0 0 0 0 0
12-11-2020 19.8 (16:00) 9.8 (00:00) 14.8 7.22 (16:00) 5.28 (15:00) 0 0 0 0 0
11-11-2020 19 (16:20) 6.8 (00:00) 12.9 5.56 (04:40) 5.28 (04:30) 0 0 0 0 0
10-11-2020 17.9 (15:50) 8.8 (00:00) 13.3 6.67 (14:40) 5 (16:20) 0.2 0 0.2 0 0
09-11-2020 19 (14:40) 12.2 (00:00) 15.6 5.83 (15:20) 3.61 (15:20) 0 0 0 0 0
08-11-2020 19.5 (13:50) 14 (00:00) 16.8 13.33 (14:50) 9.17 (14:40) 18.2 0 0 0 18.2
07-11-2020 19.2 (16:10) 12.3 (00:00) 15.8 10.83 (21:40) 7.5 (13:30) 0.8 0 0.8 0 0
06-11-2020 17.4 (14:00) 12 (00:00) 14.7 33.89 (16:20) 12.78 (16:20) 17 4.4 0.2 8 4.4
05-11-2020 18.4 (15:30) 10.5 (00:00) 14.4 10.56 (23:40) 7.22 (16:40) 37.2 16 2.6 0 18.6
04-11-2020 15.6 (17:10) 10.1 (00:00) 12.9 15.56 (22:50) 12.22 (22:50) 19.2 0 0 0 19.2
03-11-2020 19.4 (16:20) 12.9 (00:00) 16.1 6.39 (11:10) 4.72 (11:10) 0 0 0 0 0
02-11-2020 20 (14:40) 15.7 (00:00) 17.8 3.89 (18:50) 2.5 (18:50) 0 0 0 0 0
01-11-2020 22.3 (15:40) 12.7 (00:00) 17.5 3.89 (15:10) 2.22 (04:30) 0 0 0 0 0
31-10-2020 25.8 (15:50) 11.8 (00:00) 18.8 5.28 (17:20) 3.61 (07:30) 0 0 0 0 0
30-10-2020 25 (16:00) 10.3 (00:00) 17.7 5.28 (11:00) 4.17 (10:40) 0 0 0 0 0

Gráficas

Temp. máximas Temp. mínimas Temp. medias Precipitaciones Rachas de viento máximas Velocidades máximas media en intervalos de 10 minutos

Datos horarios

Fecha y hora oficial Temperatura (ºC) Velocidad del viento (km/h) Dirección del viento Racha (km/h) Dirección de racha Precipitación (mm) Presión (hPa) Tendencia (hPa) Humedad (%)
2020-11-28 23:00:00 11.5 18 Sudoeste 36 Sudoeste 0 -- -- 93
2020-11-28 22:00:00 12.5 19 Sur 29 Sur 0 -- -- 91
2020-11-28 21:00:00 12 14 Sur 27 Sur 0.4 -- -- 92
2020-11-28 20:00:00 12 14 Sur 25 Sudeste 0.6 -- -- 91
2020-11-28 19:00:00 12.6 11 Sudeste 16 Sudeste 0 -- -- 89
2020-11-28 18:00:00 13.1 7 Sudeste 12 Sudeste 0 -- -- 87
2020-11-28 17:00:00 13.9 10 Sur 21 Sur 0 -- -- 81
2020-11-28 16:00:00 14.3 13 Sur 21 Sudoeste 0 -- -- 79
2020-11-28 15:00:00 14.4 9 Sur 17 Sur 0 -- -- 80
2020-11-28 14:00:00 14 8 Sur 19 Sudoeste 0 -- -- 79
2020-11-28 13:00:00 12.5 11 Sudoeste 22 Sudoeste 0 -- -- 87
2020-11-28 12:00:00 10.2 13 Sudoeste 23 Sudoeste 0 -- -- 98
2020-11-28 11:00:00 9.6 4 Sudeste 17 Sudoeste 0 -- -- 100
2020-11-28 10:00:00 8.3 5 Sur 15 Sudoeste 0 -- -- 100
2020-11-28 09:00:00 6.4 6 Sudoeste 12 Sur 0 -- -- 100
2020-11-28 08:00:00 7 7 Sudoeste 10 Sudoeste 0 -- -- 99
2020-11-28 07:00:00 7.7 6 Sur 9 Sudoeste 0 -- -- 99
2020-11-28 06:00:00 7.8 3 Sudoeste 5 Sudoeste 0 -- -- 98
2020-11-28 05:00:00 7.9 0 Calma 7 Este 0 -- -- 98
2020-11-28 04:00:00 7.7 4 Este 10 Nordeste 0 -- -- 97
2020-11-28 03:00:00 8.3 5 Nordeste 8 Nordeste 0 -- -- 97
2020-11-28 02:00:00 7.9 9 Nordeste 17 Norte 0 -- -- 95
2020-11-28 01:00:00 9.4 9 Norte 15 Norte 0 -- -- 93
2020-11-28 00:00:00 10.3 5 Norte 15 Nordeste 0 -- -- 92
2020-11-27 23:00:00 10.9 14 Norte 21 Norte 0 -- -- 90
2020-11-27 22:00:00 11.2 10 Norte 19 Norte 0 -- -- 92
2020-11-27 21:00:00 11.3 12 Norte 18 Norte 0 -- -- 93
2020-11-27 20:00:00 11.5 6 Norte 9 Norte -- -- -- 95
2020-11-27 19:00:00 11.7 3 Norte 9 Norte 0 -- -- 95
2020-11-27 18:00:00 12.1 7 Norte 19 Norte 0 -- -- 93
2020-11-27 17:00:00 13.6 3 Nordeste 9 Nordeste 0 -- -- 85
2020-11-27 16:00:00 13.7 7 Este 13 Este 0 -- -- 85
2020-11-27 15:00:00 13.4 10 Este 20 Nordeste 0 -- -- 85
2020-11-27 14:00:00 13.2 12 Nordeste 18 Norte 0 -- -- 89
2020-11-27 13:00:00 12 11 Nordeste 17 Nordeste 0 -- -- 93
2020-11-27 12:00:00 11 10 Norte 15 Norte 0 -- -- 98
2020-11-27 11:00:00 9.5 4 Noroeste 8 Oeste 0 -- -- 100
2020-11-27 10:00:00 9 3 Norte 12 Nordeste 0 -- -- 100
2020-11-27 09:00:00 8.6 8 Nordeste 11 Nordeste 0.2 -- -- 99
2020-11-27 08:00:00 8.4 3 Nordeste 16 Nordeste 0.4 -- -- 99
2020-11-27 07:00:00 8.4 13 Nordeste 16 Nordeste 0.4 -- -- 99
2020-11-27 06:00:00 8.3 12 Nordeste 20 Nordeste 0 -- -- 98
2020-11-27 05:00:00 8.2 12 Nordeste 19 Norte 0 -- -- 97
2020-11-27 04:00:00 8.1 10 Este 19 Este 0 -- -- 97
2020-11-27 03:00:00 8.4 14 Este 19 Nordeste 0 -- -- 97
2020-11-27 02:00:00 7.7 13 Nordeste 16 Nordeste 0 -- -- 98
2020-11-27 01:00:00 8.1 12 Nordeste 17 Este 0 -- -- 96
2020-11-27 00:00:00 8.5 12 Nordeste 21 Este 0 -- -- 96
2020-11-26 23:00:00 8.6 14 Este 21 Este 0 -- -- 95
2020-11-26 22:00:00 8.1 12 Nordeste 15 Nordeste 0 -- -- 96
2020-11-26 21:00:00 8.5 12 Este 19 Este 0 -- -- 92
2020-11-26 20:00:00 8.9 11 Este 15 Sudeste 0 -- -- 90
2020-11-26 19:00:00 9.9 9 Este 21 Este 0 -- -- 90
2020-11-26 18:00:00 11.1 14 Este 29 Este 0.2 -- -- 87
2020-11-26 17:00:00 11.7 15 Este 28 Sudeste 0 -- -- 88
2020-11-26 16:00:00 11.8 12 Sudeste 21 Sudeste 0 -- -- 84
2020-11-26 15:00:00 11.4 16 Este 26 Sudeste 0 -- -- 86
2020-11-26 14:00:00 11.6 16 Este 28 Este 0 -- -- 91
2020-11-26 13:00:00 11.5 18 Sudeste 34 Sudeste 0 -- -- 89
2020-11-26 12:00:00 10.4 15 Sudeste 28 Sudeste 0.8 -- -- 96
2020-11-26 11:00:00 9.3 15 Este 23 Este 0.6 -- -- 98
2020-11-26 10:00:00 8.8 9 Sudeste 13 Este 1.2 -- -- 98
2020-11-26 09:00:00 8.6 6 Sur 19 Sudeste 3.6 -- -- 97
2020-11-26 08:00:00 8.7 11 Sudeste 23 Sur 1.2 -- -- 95
2020-11-26 07:00:00 9.4 8 Sudoeste 33 Sudeste 1.6 -- -- 95
2020-11-26 06:00:00 9.6 13 Sudeste 26 Sudeste 0 -- -- 92
2020-11-26 05:00:00 9.2 5 Sudeste 13 Este 0 -- -- 95
2020-11-26 04:00:00 9.1 9 Este 18 Sudeste 0 -- -- 94
2020-11-26 03:00:00 9.4 12 Sudeste 20 Sudeste 0 -- -- 92
2020-11-26 02:00:00 9.3 9 Sudeste 22 Sudeste 0 -- -- 94
2020-11-26 01:00:00 9.4 12 Sudeste 21 Este 0.4 -- -- 93
2020-11-26 00:00:00 9.4 13 Sudeste 39 Sudeste 2.8 -- -- 95
2020-11-25 23:00:00 10.7 28 Sudeste 45 Sur 0.6 -- -- 89
2020-11-25 22:00:00 12.4 18 Sur 34 Sur 0 -- -- 92
2020-11-25 21:00:00 12.2 10 Sur 17 Sur 0 -- -- 95
2020-11-25 20:00:00 11.9 9 Sur 19 Sudoeste 0 -- -- 94
2020-11-25 19:00:00 12.5 12 Sudoeste 31 Sur 0.2 -- -- 94
2020-11-25 18:00:00 13.3 19 Sur 33 Sur 0 -- -- 90
2020-11-25 17:00:00 13.6 18 Sur 35 Sur 0 -- -- 91
2020-11-25 16:00:00 13.8 21 Sur 34 Sur 0.2 -- -- 91
2020-11-25 15:00:00 13.8 21 Sur 42 Sur 0 -- -- 89
2020-11-25 14:00:00 14.7 27 Sur 39 Sur 0 -- -- 80
2020-11-25 13:00:00 -- -- -- -- -- -- -- -- --
2020-11-25 12:00:00 13 24 Sur 37 Sur 0 -- -- 90
2020-11-25 11:00:00 12 22 Sur 37 Sur 1.2 -- -- 94
2020-11-25 10:00:00 11.3 16 Sudoeste 51 Sur 5.6 -- -- 96
2020-11-25 09:00:00 13.3 29 Sur 45 Sur 0 -- -- 85
2020-11-25 08:00:00 12.9 28 Sur 42 Sur 0.2 -- -- 86
2020-11-25 07:00:00 12.2 23 Sur 35 Sur 0.6 -- -- 87
2020-11-25 06:00:00 12.6 18 Sur 32 Sur 0 -- -- 84
2020-11-25 05:00:00 10.8 8 Sur 25 Sur 0 -- -- 95
2020-11-25 04:00:00 11.9 15 Sur 23 Sur 0 -- -- 86
2020-11-25 03:00:00 11 15 Sur 23 Sudoeste 0 -- -- 95
2020-11-25 02:00:00 10.1 14 Sudoeste 21 Sudoeste 0 -- -- 94
2020-11-25 01:00:00 10.9 14 Sudoeste 19 Sudoeste 0 -- -- 91
2020-11-25 00:00:00 11 12 Sur 19 Sur 0 -- -- 91
2020-11-24 23:00:00 10.5 9 Sur 12 Sur 0 -- -- 89
2020-11-24 22:00:00 10.6 8 Sur 10 Sur 0 -- -- 85
2020-11-24 21:00:00 11.3 8 Sur 11 Sudeste 0 -- -- 82
2020-11-24 20:00:00 12.4 6 Sur 9 Sur 0 -- -- 79
2020-11-24 19:00:00 13.1 5 Sur 7 Sur 0 -- -- 76
2020-11-24 18:00:00 14.3 6 Sur 20 Sudoeste 0 -- -- 71
2020-11-24 17:00:00 15.5 6 Sudoeste 24 Sudoeste 0 -- -- 66
2020-11-24 16:00:00 16.8 10 Oeste 27 Sudoeste 0 -- -- 58
2020-11-24 15:00:00 17 10 Sudoeste 18 Sudoeste 0 -- -- 61
2020-11-24 14:00:00 16 10 Sudoeste 17 Sudoeste 0 -- -- 68
2020-11-24 13:00:00 16.2 7 Sudoeste 13 Sudoeste 0 -- -- 70
2020-11-24 12:00:00 14.3 5 Oeste 10 Oeste 0 -- -- 79
2020-11-24 11:00:00 12.6 2 Sudoeste 6 Nordeste 0 -- -- 83
2020-11-24 10:00:00 9.2 2 Oeste 4 Noroeste 0 -- -- 97
2020-11-24 09:00:00 7.5 2 Sur 6 Sudoeste 0 -- -- 98
2020-11-24 08:00:00 7.3 3 Sudoeste 4 Sudoeste 0 -- -- 95
2020-11-24 07:00:00 7.7 0 Calma 3 Este 0 -- -- 95
2020-11-24 06:00:00 7.7 3 Nordeste 6 Nordeste 0 -- -- 95
2020-11-24 05:00:00 7.9 4 Nordeste -- -- 0 -- -- 95
2020-11-24 04:00:00 7.9 0 Calma 4 Nordeste 0 -- -- 96
2020-11-24 03:00:00 8.3 2 Norte 5 Oeste 0 -- -- 97
2020-11-24 02:00:00 8.1 4 Oeste 6 Oeste 0 -- -- 94
2020-11-24 01:00:00 9.3 5 Oeste 8 Oeste 0 -- -- 89
2020-11-24 00:00:00 10.4 3 Sur 8 Sur 0 -- -- 84
2020-11-23 23:00:00 10.6 7 Este 8 Nordeste 0 -- -- 83
2020-11-23 22:00:00 12 0 Calma 6 Sudeste 0 -- -- 80
2020-11-23 21:00:00 12.4 3 Sudeste 4 Sudeste 0 -- -- 79
2020-11-23 20:00:00 13.1 2 Nordeste 4 Nordeste 0 -- -- 77
2020-11-23 19:00:00 13.5 3 Norte 5 Nordeste 0 -- -- 76
2020-11-23 18:00:00 14.6 6 Nordeste 10 Nordeste 0 -- -- 72
2020-11-23 17:00:00 16.8 7 Nordeste 13 Nordeste 0 -- -- 66
2020-11-23 16:00:00 17 8 Nordeste 15 Norte 0 -- -- 65
2020-11-23 15:00:00 16.8 8 Norte 15 Nordeste 0 -- -- 68
2020-11-23 14:00:00 16.2 8 Norte 14 Nordeste 0 -- -- 74
2020-11-23 13:00:00 14.8 9 Nordeste 15 Nordeste 0 -- -- 81
2020-11-23 12:00:00 12.1 10 Nordeste 13 Nordeste 0 -- -- 94
2020-11-23 11:00:00 9.8 8 Este 12 Este 0 -- -- 100
2020-11-23 10:00:00 6.6 5 Este 9 Este 0 -- -- 100
2020-11-23 09:00:00 5.5 5 Este 12 Nordeste 0 -- -- 99
2020-11-23 08:00:00 5.8 9 Nordeste 12 Nordeste 0 -- -- 99
2020-11-23 07:00:00 6.3 9 Nordeste 10 Nordeste 0 -- -- 98
2020-11-23 06:00:00 7.2 9 Nordeste 11 Nordeste 0 -- -- 98
2020-11-23 05:00:00 7.6 8 Nordeste 10 Nordeste 0 -- -- 96
2020-11-23 04:00:00 8.4 8 Nordeste 10 Nordeste 0 -- -- 95
2020-11-23 03:00:00 8.8 9 Sudeste 15 Este 0 -- -- 97
2020-11-23 02:00:00 8.9 13 Este 13 Este 0 -- -- 95
2020-11-23 01:00:00 9.2 9 Este 12 Nordeste 0 -- -- 94
2020-11-23 00:00:00 9.9 11 Nordeste 12 Nordeste 0 -- -- 92
2020-11-22 23:00:00 10.8 9 Nordeste 11 Este 0 -- -- 89
2020-11-22 22:00:00 11.8 8 Este 9 Este 0 -- -- 85
2020-11-22 21:00:00 12.1 4 Este 10 Nordeste 0 -- -- 85
2020-11-22 20:00:00 12 10 Nordeste 13 Nordeste 0 -- -- 85
2020-11-22 19:00:00 12.4 12 Nordeste 14 Nordeste 0 -- -- 85
2020-11-22 18:00:00 15.2 10 Nordeste 19 Nordeste 0 -- -- 74
2020-11-22 17:00:00 18.2 15 Nordeste 24 Este 0 -- -- 60
2020-11-22 16:00:00 19.1 18 Este 27 Nordeste 0 -- -- 57
2020-11-22 15:00:00 19.1 16 Este 28 Este 0 -- -- 57
2020-11-22 14:00:00 18.6 15 Este 24 Este 0 -- -- 60
2020-11-22 13:00:00 16.9 13 Este 19 Nordeste 0 -- -- 69
2020-11-22 12:00:00 14.5 13 Nordeste 16 Nordeste 0 -- -- 78
2020-11-22 11:00:00 11.6 8 Nordeste 15 Este 0 -- -- 91
2020-11-22 10:00:00 9.4 11 Este 15 Este 0 -- -- 99
2020-11-22 09:00:00 7.1 8 Nordeste 10 Nordeste 0 -- -- 99
2020-11-22 08:00:00 6.7 10 Nordeste 12 Nordeste 0 -- -- 98
2020-11-22 07:00:00 7.1 10 Nordeste 12 Nordeste 0 -- -- 98
2020-11-22 06:00:00 7.4 9 Nordeste 12 Nordeste 0 -- -- 97
2020-11-22 05:00:00 7.6 10 Nordeste 12 Nordeste 0 -- -- 96
2020-11-22 04:00:00 8.5 9 Nordeste 13 Nordeste 0 -- -- 94
2020-11-22 03:00:00 8.9 6 Nordeste 10 Nordeste 0 -- -- 92
2020-11-22 02:00:00 9.1 8 Este 10 Este 0 -- -- 91
2020-11-22 01:00:00 9.6 5 Nordeste 10 Nordeste 0 -- -- 89
2020-11-22 00:00:00 10.3 5 Nordeste 11 Este 0 -- -- 86
2020-11-21 23:00:00 10.5 10 Este 13 Nordeste 0 -- -- 84
2020-11-21 22:00:00 10.4 13 Nordeste 16 Nordeste 0 -- -- 84
2020-11-21 21:00:00 12 12 Este 15 Este 0 -- -- 77
2020-11-21 20:00:00 12.8 14 Este 18 Este 0 -- -- 75
2020-11-21 19:00:00 13.1 14 Nordeste 17 Nordeste 0 -- -- 74
2020-11-21 18:00:00 15 8 Nordeste 14 Nordeste 0 -- -- 70
2020-11-21 17:00:00 17.8 12 Nordeste 17 Nordeste 0 -- -- 55
2020-11-21 16:00:00 18.7 11 Nordeste 21 Nordeste 0 -- -- 52
2020-11-21 15:00:00 18.5 13 Nordeste 22 Este 0 -- -- 51
2020-11-21 14:00:00 17.7 14 Nordeste 23 Nordeste 0 -- -- 52
2020-11-21 13:00:00 16.9 18 Este 26 Este 0 -- -- 51
2020-11-21 12:00:00 14.9 19 Nordeste 27 Este 0 -- -- 61
2020-11-21 11:00:00 11.9 16 Este 22 Este 0 -- -- 77
2020-11-21 10:00:00 9 17 Nordeste 26 Nordeste 0 -- -- 89
2020-11-21 09:00:00 7.1 20 Nordeste 24 Nordeste 0 -- -- 98
2020-11-21 08:00:00 6.5 8 Este 18 Nordeste 0 -- -- 99
2020-11-21 07:00:00 5.8 12 Este 14 Este 0 -- -- 99
2020-11-21 06:00:00 6.4 7 Este 19 Nordeste 0 -- -- 97
2020-11-21 05:00:00 7.1 18 Nordeste 20 Nordeste 0 -- -- 97
2020-11-21 04:00:00 7.4 14 Nordeste 15 Nordeste 0 -- -- 96
2020-11-21 03:00:00 8.5 16 Nordeste 18 Nordeste 0 -- -- 94
2020-11-21 02:00:00 10.2 4 Nordeste 8 Nordeste 0 -- -- 93
2020-11-21 01:00:00 10.2 8 Nordeste 12 Nordeste 0 -- -- 92
2020-11-21 00:00:00 10.6 11 Nordeste 13 Nordeste 0 -- -- 90
2020-11-20 23:00:00 11.2 11 Nordeste 14 Nordeste 0 -- -- 87
2020-11-20 22:00:00 11.9 13 Este 15 Nordeste 0 -- -- 86
2020-11-20 21:00:00 12.4 11 Nordeste 13 Nordeste 0 -- -- 82
2020-11-20 20:00:00 13.1 11 Nordeste 13 Nordeste 0 -- -- 82
2020-11-20 19:00:00 14.1 13 Nordeste 18 Nordeste 0 -- -- 79
2020-11-20 18:00:00 17.2 15 Nordeste 30 Nordeste 0 -- -- 67
2020-11-20 17:00:00 19.8 22 Nordeste 32 Nordeste 0 -- -- 55
2020-11-20 16:00:00 20.7 21 Nordeste 31 Nordeste 0 -- -- 53
2020-11-20 15:00:00 20.7 22 Nordeste 30 Nordeste 0 -- -- 57
2020-11-20 14:00:00 19.9 15 Nordeste 24 Nordeste 0 -- -- 63
2020-11-20 13:00:00 18.7 18 Nordeste 27 Nordeste 0 -- -- 67
2020-11-20 12:00:00 17 18 Nordeste 25 Nordeste 0 -- -- 77
2020-11-20 11:00:00 14.4 14 Nordeste 22 Nordeste 0 -- -- 88
2020-11-20 10:00:00 12.4 14 Nordeste 18 Nordeste 0 -- -- 94
2020-11-20 09:00:00 10.1 12 Este 20 Nordeste 0 -- -- 99
2020-11-20 08:00:00 9.6 15 Nordeste 19 Nordeste 0 -- -- 99
2020-11-20 07:00:00 9.4 14 Nordeste 15 Nordeste 0 -- -- 99
2020-11-20 06:00:00 9.2 13 Este 17 Nordeste 0 -- -- 98
2020-11-20 05:00:00 10.2 15 Nordeste 21 Nordeste 0 -- -- 97
2020-11-20 04:00:00 10.9 15 Nordeste 22 Nordeste 0 -- -- 97
2020-11-20 03:00:00 11.4 17 Nordeste 21 Nordeste 0 -- -- 95
2020-11-20 02:00:00 12.1 15 Nordeste 17 Nordeste 0 -- -- 94
2020-11-20 01:00:00 12.9 11 Nordeste 12 Nordeste 0 -- -- 91
2020-11-20 00:00:00 14.6 10 Nordeste 13 Nordeste 0 -- -- 85
2020-11-19 23:00:00 16.1 9 Nordeste 11 Nordeste 0 -- -- 79
2020-11-19 22:00:00 15.7 7 Este 11 Este 0 -- -- 82
2020-11-19 21:00:00 15.9 9 Este 13 Nordeste 0 -- -- 81
2020-11-19 20:00:00 16.3 12 Nordeste 18 Nordeste 0 -- -- 79
2020-11-19 19:00:00 17.5 18 Nordeste 24 Nordeste 0 -- -- 77
2020-11-19 18:00:00 18.4 17 Nordeste 22 Nordeste 0 -- -- 77
2020-11-19 17:00:00 21.4 17 Nordeste 23 Nordeste 0 -- -- 61
2020-11-19 16:00:00 22.3 18 Nordeste 24 Nordeste 0 -- -- 59
2020-11-19 15:00:00 21.6 18 Nordeste 31 Nordeste 0 -- -- 62
2020-11-19 14:00:00 19.8 28 Nordeste 39 Nordeste 0 -- -- 71
2020-11-19 13:00:00 18.9 28 Nordeste 33 Nordeste 0 -- -- 77
2020-11-19 12:00:00 16.6 22 Nordeste 31 Nordeste 0 -- -- 86
2020-11-19 11:00:00 13.7 22 Nordeste 30 Nordeste 0 -- -- 99
2020-11-19 10:00:00 11.3 19 Nordeste 26 Nordeste 0 -- -- 100
2020-11-19 09:00:00 10.1 18 Nordeste 22 Nordeste 0 -- -- 100
2020-11-19 08:00:00 9.8 14 Nordeste 22 Nordeste 0 -- -- 100
2020-11-19 07:00:00 10.4 17 Nordeste 22 Este 0 -- -- 100
2020-11-19 06:00:00 10.8 17 Este 20 Nordeste 0 -- -- 100
2020-11-19 05:00:00 11.5 16 Este 19 Nordeste 0 -- -- 100
2020-11-19 04:00:00 11.5 14 Nordeste 16 Nordeste 0.2 -- -- 100
2020-11-19 03:00:00 12.3 13 Este 18 Nordeste 0 -- -- 100
2020-11-19 02:00:00 12.4 13 Nordeste 17 Nordeste 0 -- -- 99
2020-11-19 01:00:00 12.7 14 Nordeste 16 Nordeste 0 -- -- 99
2020-11-19 00:00:00 13 13 Nordeste 16 Nordeste 0 -- -- 99
2020-11-18 23:00:00 13.3 12 Nordeste 17 Nordeste 0 -- -- 97
2020-11-18 22:00:00 13.7 14 Nordeste 17 Nordeste 0 -- -- 95
2020-11-18 21:00:00 15 7 Nordeste 15 Este 0 -- -- 90
2020-11-18 20:00:00 16.5 12 Este 14 Este 0 -- -- 87
2020-11-18 19:00:00 17 8 Nordeste -- -- 0 -- -- 86
2020-11-18 18:00:00 18.8 7 Nordeste 9 Nordeste 0 -- -- 78
2020-11-18 17:00:00 20.6 8 Nordeste 13 Nordeste 0 -- -- 72
2020-11-18 16:00:00 21.1 9 Nordeste 14 Nordeste 0 -- -- 70
2020-11-18 15:00:00 20.6 8 Norte 18 Este 0 -- -- 77
2020-11-18 14:00:00 18.9 11 Nordeste 16 Nordeste 0 -- -- 83
2020-11-18 13:00:00 16.1 11 Nordeste 15 Nordeste 0 -- -- 99
2020-11-18 12:00:00 13.7 14 Nordeste 16 Nordeste 0 -- -- 100
2020-11-18 11:00:00 11.8 13 Nordeste 17 Nordeste 0 -- -- 100
2020-11-18 10:00:00 10.5 14 Nordeste 17 Nordeste 0 -- -- 100
2020-11-18 09:00:00 8.8 13 Este 14 Nordeste 0 -- -- 100
2020-11-18 08:00:00 8.7 12 Nordeste 14 Este 0 -- -- 100
2020-11-18 07:00:00 8.2 9 Nordeste 12 Este 0 -- -- 100
2020-11-18 06:00:00 9.1 8 Este 12 Este 0 -- -- 100
2020-11-18 05:00:00 10 10 Este 12 Nordeste 0 -- -- 100
2020-11-18 04:00:00 10.1 8 Nordeste 12 Nordeste 0 -- -- 100
2020-11-18 03:00:00 10.4 11 Nordeste 13 Nordeste 0.2 -- -- 100
2020-11-18 02:00:00 10.5 5 Este 10 Nordeste 0 -- -- 100
2020-11-18 01:00:00 11.1 7 Nordeste 9 Nordeste 0 -- -- 100
2020-11-18 00:00:00 12.4 6 Este 12 Este 0 -- -- 99
2020-11-17 23:00:00 14.3 3 Sudeste 13 Sudeste 0 -- -- 100
2020-11-17 22:00:00 14.1 9 Sudeste 15 Este 0 -- -- 100
2020-11-17 21:00:00 13.5 13 Este 15 Este 0 -- -- 100
2020-11-17 20:00:00 13.4 10 Nordeste 13 Nordeste 0 -- -- 99
2020-11-17 19:00:00 13.7 10 Nordeste 12 Nordeste 0 -- -- 98
2020-11-17 18:00:00 14.9 8 Nordeste 14 Nordeste 0 -- -- 96
2020-11-17 17:00:00 15.8 11 Nordeste 17 Nordeste 0 -- -- 94
2020-11-17 16:00:00 15.7 9 Nordeste 17 Nordeste 0 -- -- 98
2020-11-17 15:00:00 15.5 11 Nordeste 16 Nordeste 0 -- -- 100
2020-11-17 14:00:00 14.4 10 Nordeste 15 Nordeste 0 -- -- 100
2020-11-17 13:00:00 13.3 13 Nordeste 17 Nordeste 0 -- -- 100
2020-11-17 12:00:00 12.3 14 Este 20 Este 0 -- -- 100
2020-11-17 11:00:00 11.6 13 Este 21 Este 0 -- -- 100
2020-11-17 10:00:00 10.8 15 Nordeste 21 Nordeste 0 -- -- 100
2020-11-17 09:00:00 10.8 14 Este 18 Nordeste 0 -- -- 100
2020-11-17 08:00:00 10.6 12 Este 18 Este 0 -- -- 100
2020-11-17 07:00:00 10.7 14 Este 18 Este 0 -- -- 100
2020-11-17 06:00:00 10.7 13 Este 19 Este 0 -- -- 100
2020-11-17 05:00:00 10.2 12 Este 18 Nordeste 0.2 -- -- 100
2020-11-17 04:00:00 10.6 10 Nordeste 13 Nordeste 0 -- -- 99
2020-11-17 03:00:00 10.7 8 Este 12 Este 0 -- -- 99
2020-11-17 02:00:00 11 11 Este 14 Este 0 -- -- 97
2020-11-17 01:00:00 14.3 5 Sudeste 12 Sudeste 0 -- -- 98
2020-11-17 00:00:00 14.3 8 Sudeste 10 Sudeste 0 -- -- 98
2020-11-16 23:00:00 14.2 6 Sudeste 12 Este 0 -- -- 98
2020-11-16 22:00:00 13.9 11 Este 12 Este 0 -- -- 97
2020-11-16 21:00:00 14 10 Este 11 Este 0 -- -- 96
2020-11-16 20:00:00 14.3 8 Nordeste 9 Nordeste 0 -- -- 93
2020-11-16 19:00:00 15.8 3 Norte 8 Norte 0 -- -- 92
2020-11-16 18:00:00 17.5 6 Norte 11 Norte 0 -- -- 87
2020-11-16 17:00:00 19 4 Norte 10 Norte 0 -- -- 81
2020-11-16 16:00:00 20 6 Norte 10 Norte 0 -- -- 75
2020-11-16 15:00:00 20.5 6 Noroeste 15 Sudoeste 0 -- -- 75
2020-11-16 14:00:00 19.9 8 Sudoeste 16 Sudoeste 0 -- -- 76
2020-11-16 13:00:00 18.9 8 Sudoeste 15 Oeste 0 -- -- 81
2020-11-16 12:00:00 17.4 6 Sudoeste 14 Sudoeste 0 -- -- 87
2020-11-16 11:00:00 16.2 8 Oeste 15 Oeste 0 -- -- 93
2020-11-16 10:00:00 16.1 8 Sudoeste 14 Sudoeste 0 -- -- 99
2020-11-16 09:00:00 15.3 5 Sudoeste 9 Sudoeste 0 -- -- 99
2020-11-16 08:00:00 15.4 3 Sudoeste 10 Oeste 0 -- -- 99
2020-11-16 07:00:00 15.7 5 Sudoeste 8 Sudoeste 0 -- -- 99
2020-11-16 06:00:00 16 5 Oeste 8 Sudoeste 0 -- -- 99
2020-11-16 05:00:00 16.4 4 Sudoeste 8 Sudoeste 0 -- -- 98
2020-11-16 04:00:00 16.4 4 Sudoeste 15 Sudoeste 0 -- -- 98
2020-11-16 03:00:00 16.5 12 Sudoeste 17 Sudoeste 0 -- -- 97
2020-11-16 02:00:00 17 9 Sudoeste 18 Sudoeste 0 -- -- 95
2020-11-16 01:00:00 17 6 Sudoeste 19 Sudoeste 0 -- -- 94
2020-11-16 00:00:00 17 14 Sudoeste 25 Sudoeste 0 -- -- 92
2020-11-15 23:00:00 17.6 17 Sudoeste 28 Sur 0 -- -- 89
2020-11-15 22:00:00 18 13 Sudoeste 18 Sudoeste 0 -- -- 86
2020-11-15 21:00:00 18.6 8 Sudoeste 13 Sur 0 -- -- 84
2020-11-15 20:00:00 19 9 Sur 13 Sur 0 -- -- 84
2020-11-15 19:00:00 19.3 9 Sur 14 Sudoeste 0 -- -- 83
2020-11-15 18:00:00 20.9 9 Sudoeste 16 Sudoeste 0 -- -- 76
2020-11-15 17:00:00 22.4 12 Sudoeste 30 Sudoeste 0 -- -- 70
2020-11-15 16:00:00 23.3 19 Sudoeste 29 Sudoeste 0 -- -- 65
2020-11-15 15:00:00 23.5 18 Sudoeste 29 Sudoeste 0 -- -- 64
2020-11-15 14:00:00 22.6 17 Sudoeste 32 Sur 0 -- -- 68
2020-11-15 13:00:00 21.4 22 Sudoeste 33 Sudoeste 0 -- -- 71
2020-11-15 12:00:00 20.5 15 Sudoeste 23 Sudoeste 0 -- -- 80
2020-11-15 11:00:00 18.6 8 Oeste 15 Sudoeste 0 -- -- 87
2020-11-15 10:00:00 17.4 8 Sudoeste 16 Sudoeste 0 -- -- 91
2020-11-15 09:00:00 16 0 Calma 4 Sudeste 0 -- -- 98
2020-11-15 08:00:00 15.2 0 Calma 6 Sudoeste 0 -- -- 97
2020-11-15 07:00:00 15.5 2 Norte 9 Sur 0 -- -- 96
2020-11-15 06:00:00 16.2 9 Sudoeste 24 Sur 0 -- -- 95
2020-11-15 05:00:00 16 15 Sudoeste 24 Sudoeste 0 -- -- 96
2020-11-15 04:00:00 16.2 11 Sudoeste 21 Sudoeste 0 -- -- 95
2020-11-15 03:00:00 16.1 14 Sudoeste 23 Sudoeste 0 -- -- 95
2020-11-15 02:00:00 16.4 15 Sur 21 Sur 0 -- -- 95
2020-11-15 01:00:00 15.7 7 Sur 13 Sur 0 -- -- 97
2020-11-15 00:00:00 16 5 Sur 10 Sudeste 0 -- -- 96
2020-11-14 23:00:00 16.4 6 Sur 13 Sudoeste 0 -- -- 97
2020-11-14 22:00:00 16.5 9 Sudoeste 13 Sudoeste 0 -- -- 97
2020-11-14 21:00:00 16.7 8 Sudoeste 14 Sudoeste 0.2 -- -- 97
2020-11-14 20:00:00 16.7 11 Sudoeste 19 Sur 0 -- -- 96
2020-11-14 19:00:00 17.3 12 Sudoeste 20 Sudoeste 0 -- -- 91
2020-11-14 18:00:00 18.3 12 Sudoeste 22 Sudoeste 0 -- -- 83
2020-11-14 17:00:00 19.2 10 Sudoeste 23 Oeste 0 -- -- 76
2020-11-14 16:00:00 20.2 13 Sudoeste 30 Sudoeste 0 -- -- 70
2020-11-14 15:00:00 19.2 20 Sudoeste 30 Sudoeste 0 -- -- 78
2020-11-14 14:00:00 18.3 13 Sudoeste 29 Sudoeste 0 -- -- 86
2020-11-14 13:00:00 16.7 20 Sudoeste 30 Sudoeste 0 -- -- 97
2020-11-14 12:00:00 16.1 19 Sudoeste 28 Sudoeste 0.2 -- -- 99
2020-11-14 11:00:00 15.6 9 Sudoeste 15 Sudoeste 0.2 -- -- 98
2020-11-14 10:00:00 15.5 5 Sudoeste 10 Sudoeste 0 -- -- 97
2020-11-14 09:00:00 15.5 7 Sudoeste 12 Sur 0 -- -- 96
2020-11-14 08:00:00 14.8 6 Sudeste 12 Sudeste 0.2 -- -- 96
2020-11-14 07:00:00 14.8 7 Sur 13 Sudeste 0 -- -- 95
2020-11-14 06:00:00 14.8 9 Sudeste 13 Sudeste 0 -- -- 93
2020-11-14 05:00:00 15 4 Sur 9 Sudeste 0 -- -- 92
2020-11-14 04:00:00 15.3 7 Sur 13 Sudeste 0 -- -- 92
2020-11-14 03:00:00 15.3 8 Sudeste 12 Sudeste 0 -- -- 92
2020-11-14 02:00:00 15.6 6 Sudeste 14 Sudeste 0 -- -- 89
2020-11-14 01:00:00 15.6 9 Sur 15 Sudeste 0 -- -- 89
2020-11-14 00:00:00 15.4 8 Sudeste 14 Sudeste 0 -- -- 88
2020-11-13 23:00:00 15.8 5 Sudeste 9 Sudeste 0 -- -- 86
2020-11-13 22:00:00 16 6 Sur 10 Sudeste 0 -- -- 86
2020-11-13 21:00:00 16.3 6 Sudeste 10 Sur 0 -- -- 83
2020-11-13 20:00:00 16 6 Sur 8 Sur 0 -- -- 83
2020-11-13 19:00:00 16.3 4 Sur 6 Sur 0 -- -- 82
2020-11-13 18:00:00 17.3 4 Sur 10 Sudoeste 0 -- -- 79
2020-11-13 17:00:00 17.9 2 Este 12 Nordeste 0 -- -- 77
2020-11-13 16:00:00 18.1 10 Nordeste 13 Nordeste 0 -- -- 75
2020-11-13 15:00:00 17.7 9 Nordeste 13 Este 0 -- -- 75
2020-11-13 14:00:00 17.4 11 Este 15 Este 0 -- -- 78
2020-11-13 13:00:00 15.3 9 Nordeste 14 Nordeste 0 -- -- 83
2020-11-13 12:00:00 14 9 Nordeste 13 Norte 0 -- -- 86
2020-11-13 11:00:00 12.3 10 Nordeste 13 Nordeste 0 -- -- 94
2020-11-13 10:00:00 10.3 9 Nordeste 10 Nordeste 0 -- -- 98
2020-11-13 09:00:00 9.2 9 Nordeste 11 Nordeste 0 -- -- 98
2020-11-13 08:00:00 8.7 9 Nordeste 12 Nordeste 0 -- -- 95
2020-11-13 07:00:00 10.8 8 Sudeste 13 Este 0 -- -- 86
2020-11-13 06:00:00 9.3 12 Este 13 Este 0 -- -- 95
2020-11-13 05:00:00 9.1 9 Nordeste 10 Nordeste 0 -- -- 93
2020-11-13 04:00:00 10.9 7 Este 12 Este 0 -- -- 87
2020-11-13 03:00:00 10.7 10 Este 12 Este 0 -- -- 89
2020-11-13 02:00:00 10.9 4 Nordeste 9 Nordeste 0 -- -- 92
2020-11-13 01:00:00 11.6 5 Nordeste 8 Nordeste 0 -- -- 84
2020-11-13 00:00:00 12.3 3 Noroeste 12 Sudoeste 0 -- -- 82
2020-11-12 23:00:00 12.7 5 Sur 15 Sudeste 0 -- -- 80
2020-11-12 22:00:00 13.8 11 Sudeste 13 Sudeste 0 -- -- 83
2020-11-12 21:00:00 14.7 7 Sudeste 10 Este 0 -- -- 80
2020-11-12 20:00:00 14.9 10 Sudeste 18 Este 0 -- -- 83
2020-11-12 19:00:00 15.1 14 Este 18 Este 0 -- -- 81
2020-11-12 18:00:00 16.9 9 Nordeste 21 Este 0 -- -- 74
2020-11-12 17:00:00 18.9 16 Este 26 Este 0 -- -- 64
2020-11-12 16:00:00 19.8 19 Este 26 Este 0 -- -- 62
2020-11-12 15:00:00 19.1 19 Nordeste 25 Nordeste 0 -- -- 65
2020-11-12 14:00:00 18.1 12 Este 21 Este 0 -- -- 69
2020-11-12 13:00:00 16.9 17 Nordeste 22 Nordeste 0 -- -- 76
2020-11-12 12:00:00 15.3 11 Nordeste 14 Nordeste 0 -- -- 86
2020-11-12 11:00:00 12.8 9 Nordeste 15 Nordeste 0 -- -- 99
2020-11-12 10:00:00 11.5 10 Este 17 Este 0 -- -- 100
2020-11-12 09:00:00 10.5 12 Nordeste 15 Nordeste 0 -- -- 100
2020-11-12 08:00:00 10 10 Nordeste 15 Nordeste 0 -- -- 99
2020-11-12 07:00:00 10 14 Este 15 Este 0 -- -- 99
2020-11-12 06:00:00 10 11 Nordeste 14 Nordeste 0 -- -- 98
2020-11-12 05:00:00 10.8 10 Nordeste 16 Este 0 -- -- 93
2020-11-12 04:00:00 11.7 16 Este 17 Este 0 -- -- 95
2020-11-12 03:00:00 11.9 11 Este 13 Este 0 -- -- 97
2020-11-12 02:00:00 11.9 10 Este 12 Este 0 -- -- 97
2020-11-12 01:00:00 11.9 9 Nordeste 12 Este 0 -- -- 97
2020-11-12 00:00:00 12.3 9 Este 12 Nordeste 0 -- -- 95
2020-11-11 23:00:00 12.8 9 Nordeste 11 Norte 0 -- -- 93
2020-11-11 22:00:00 14.3 4 Nordeste 11 Este 0 -- -- 88
2020-11-11 21:00:00 14.4 10 Este 16 Este 0 -- -- 88
2020-11-11 20:00:00 13.8 12 Este 13 Nordeste 0 -- -- 87
2020-11-11 19:00:00 13.9 11 Nordeste 14 Norte 0 -- -- 86
2020-11-11 18:00:00 16.1 9 Nordeste 12 Norte 0 -- -- 81
2020-11-11 17:00:00 17.7 8 Norte 14 Nordeste 0 -- -- 73
2020-11-11 16:00:00 18.8 8 Nordeste 14 Norte 0 -- -- 70
2020-11-11 15:00:00 18.1 8 Norte 13 Norte 0 -- -- 73
2020-11-11 14:00:00 17.7 8 Norte 13 Norte 0 -- -- 75
2020-11-11 13:00:00 16.9 6 Nordeste 15 Nordeste 0 -- -- 77
2020-11-11 12:00:00 14.4 12 Nordeste 17 Nordeste 0 -- -- 88
2020-11-11 11:00:00 12.1 11 Nordeste 15 Norte 0 -- -- 100
2020-11-11 10:00:00 10 11 Nordeste 13 Nordeste 0 -- -- 100
2020-11-11 09:00:00 7.5 12 Nordeste 15 Nordeste 0 -- -- 100
2020-11-11 08:00:00 6.8 12 Nordeste 15 Nordeste 0 -- -- 99
2020-11-11 07:00:00 7.7 10 Nordeste 14 Nordeste 0 -- -- 99
2020-11-11 06:00:00 7.6 10 Nordeste 14 Este 0 -- -- 98
2020-11-11 05:00:00 8.6 13 Este 20 Este 0 -- -- 96
2020-11-11 04:00:00 8.7 14 Este 15 Este 0 -- -- 98
2020-11-11 03:00:00 9.7 10 Este 14 Este 0 -- -- 98
2020-11-11 02:00:00 10.1 10 Este 13 Nordeste 0 -- -- 96
2020-11-11 01:00:00 11.3 7 Este 11 Sudeste 0 -- -- 93
2020-11-11 00:00:00 11.5 5 Este 8 Este 0 -- -- 94
2020-11-10 23:00:00 11.8 6 Nordeste 9 Nordeste 0 -- -- 92
2020-11-10 22:00:00 12.4 6 Nordeste 10 Este 0 -- -- 90
2020-11-10 21:00:00 12.5 -- -- -- -- 0 -- -- 90
2020-11-10 20:00:00 12.9 10 Nordeste 11 Nordeste 0 -- -- 89
2020-11-10 19:00:00 13.5 10 Nordeste 12 Nordeste 0 -- -- 88
2020-11-10 18:00:00 16.2 12 Nordeste 19 Este 0 -- -- 78
2020-11-10 17:00:00 17.5 14 Nordeste 23 Nordeste 0 -- -- 74
2020-11-10 16:00:00 17.9 17 Nordeste 23 Nordeste 0 -- -- 72
2020-11-10 15:00:00 17.4 15 Nordeste 24 Este 0 -- -- 78
2020-11-10 14:00:00 16 17 Nordeste 22 Nordeste 0 -- -- 86
2020-11-10 13:00:00 14.2 12 Nordeste 19 Nordeste 0 -- -- 100
2020-11-10 12:00:00 12.2 12 Nordeste 16 Nordeste 0 -- -- 100
2020-11-10 11:00:00 11.3 11 Nordeste 15 Nordeste 0 -- -- 100
2020-11-10 10:00:00 10.6 10 Nordeste 12 Este 0 -- -- 100
2020-11-10 09:00:00 9.4 6 Este 10 Este 0.2 -- -- 99
2020-11-10 08:00:00 9.2 3 Este 8 Nordeste 0 -- -- 99
2020-11-10 07:00:00 9.4 6 Nordeste 8 Nordeste 0 -- -- 98
2020-11-10 06:00:00 9.6 8 Este 10 Este 0 -- -- 97
2020-11-10 05:00:00 10.5 8 Este 11 Este 0 -- -- 97
2020-11-10 04:00:00 11 10 Este 12 Este 0 -- -- 97
2020-11-10 03:00:00 10.9 6 Este 8 Este 0 -- -- 96
2020-11-10 02:00:00 11.7 4 Sur 5 Sudeste 0 -- -- 97
2020-11-10 01:00:00 12 2 Sudoeste 5 Oeste 0 -- -- 96
2020-11-10 00:00:00 12.2 3 Oeste 3 Sur 0 -- -- 94
2020-11-09 23:00:00 12.6 2 Sudoeste 3 Sur 0 -- -- 92
2020-11-09 22:00:00 13.3 2 Sudoeste 4 Sudoeste 0 -- -- 91
2020-11-09 21:00:00 13.6 3 Sur 3 Sudoeste 0 -- -- 90
2020-11-09 20:00:00 14.2 3 Sur 4 Sur 0 -- -- 88
2020-11-09 19:00:00 15.3 0 Calma 4 Noroeste 0 -- -- 84
2020-11-09 18:00:00 16.9 0 Calma 8 Sudoeste 0 -- -- 76
2020-11-09 17:00:00 17.1 5 Sudoeste 13 Oeste 0 -- -- 75
2020-11-09 16:00:00 16.8 8 Oeste 21 Oeste 0 -- -- 80
2020-11-09 15:00:00 18.3 8 Sudoeste 16 Sudoeste 0 -- -- 71
2020-11-09 14:00:00 17.9 6 Oeste 12 Oeste 0 -- -- 72
2020-11-09 13:00:00 17.2 5 Oeste 10 Oeste 0 -- -- 79
2020-11-09 12:00:00 15.7 3 Noroeste 9 Noroeste 0 -- -- 90
2020-11-09 11:00:00 14.9 4 Sudoeste 12 Sur 0 -- -- 92
2020-11-09 10:00:00 14 4 Sudoeste 6 Oeste 0 -- -- 99
2020-11-09 09:00:00 12.6 2 Este 6 Sudoeste 0 -- -- 99
2020-11-09 08:00:00 12.7 4 Sudoeste 6 Oeste 0 -- -- 99
2020-11-09 07:00:00 12.8 4 Sudoeste 11 Sudoeste 0 -- -- 98
2020-11-09 06:00:00 12.7 5 Sudoeste 7 Sudoeste 0 -- -- 99
2020-11-09 05:00:00 13.1 5 Sudoeste 10 Sudoeste 0 -- -- 99
2020-11-09 04:00:00 12.6 6 Oeste 14 Sudoeste 0 -- -- 99
2020-11-09 03:00:00 13.7 10 Sudoeste 16 Sudoeste 0 -- -- 99
2020-11-09 02:00:00 14.1 6 Sudoeste 11 Sudoeste 0 -- -- 99
2020-11-09 01:00:00 14.3 7 Sudoeste 13 Sur 0 -- -- 99
2020-11-09 00:00:00 14.3 7 Sudoeste 16 Sudoeste 0 -- -- 99
2020-11-08 23:00:00 14.1 10 Sudoeste 31 Sudoeste 2.8 -- -- 98
2020-11-08 22:00:00 14.9 17 Sudoeste 30 Sur 7.2 -- -- 97
2020-11-08 21:00:00 15.1 16 Sur 32 Sudoeste 5.4 -- -- 97
2020-11-08 20:00:00 15.4 18 Sudoeste 31 Sudoeste 0.4 -- -- 96
2020-11-08 19:00:00 15.2 15 Sur 29 Sur 2.4 -- -- 96
2020-11-08 18:00:00 16.4 22 Sudoeste 39 Sur 0 -- -- 86
2020-11-08 17:00:00 17.8 30 Sur 43 Sudoeste 0 -- -- 75
2020-11-08 16:00:00 18.7 24 Sudoeste 43 Sudoeste 0 -- -- 71
2020-11-08 15:00:00 18.5 32 Sudoeste 48 Sudoeste 0 -- -- 70
2020-11-08 14:00:00 19.5 28 Sudoeste 42 Sur 0 -- -- 67
2020-11-08 13:00:00 18.8 31 Sur 44 Sur 0 -- -- 70
2020-11-08 12:00:00 17.7 25 Sudoeste 44 Sur 0 -- -- 78
2020-11-08 11:00:00 17 28 Sur 42 Sur 0 -- -- 80
2020-11-08 10:00:00 16.8 22 Sur 37 Sur 0 -- -- 80
2020-11-08 09:00:00 15.8 21 Sur 31 Sur 0 -- -- 83
2020-11-08 08:00:00 14.6 16 Sur 32 Sur 0 -- -- 88
2020-11-08 07:00:00 14.9 15 Sur 38 Sur 0 -- -- 87
2020-11-08 06:00:00 15.2 22 Sur 35 Sur 0 -- -- 85
2020-11-08 05:00:00 15.1 18 Sur 31 Sur 0 -- -- 85
2020-11-08 04:00:00 15.1 18 Sur 28 Sur 0 -- -- 85
2020-11-08 03:00:00 15 8 Sur 28 Sur 0 -- -- 85
2020-11-08 02:00:00 15 15 Sur 27 Sur 0 -- -- 83
2020-11-08 01:00:00 14.8 13 Sur 31 Sur 0 -- -- 84
2020-11-08 00:00:00 15.1 21 Sur 31 Sur 0 -- -- 84
2020-11-07 23:00:00 15.1 21 Sur 34 Sur 0 -- -- 85
2020-11-07 22:00:00 15.2 24 Sur 39 Sur 0 -- -- 83
2020-11-07 21:00:00 15.3 21 Sur 31 Sudoeste 0 -- -- 82
2020-11-07 20:00:00 16 15 Sur 25 Sur 0 -- -- 78
2020-11-07 19:00:00 16 12 Sur 16 Sur 0 -- -- 77
2020-11-07 18:00:00 17.2 10 Sudoeste 32 Sudoeste 0 -- -- 71
2020-11-07 17:00:00 18.3 21 Sudoeste 38 Sudoeste 0 -- -- 62
2020-11-07 16:00:00 19 19 Sudoeste 37 Sudoeste 0 -- -- 62
2020-11-07 15:00:00 18 19 Sudoeste 36 Sudoeste 0 -- -- 69
2020-11-07 14:00:00 17.7 24 Sudoeste 37 Sudoeste 0 -- -- 71
2020-11-07 13:00:00 16.6 20 Sudoeste 30 Sudoeste 0 -- -- 77
2020-11-07 12:00:00 16.1 18 Sudoeste 29 Sudoeste 0 -- -- 82
2020-11-07 11:00:00 14.3 17 Sudoeste 27 Sudoeste 0 -- -- 93
2020-11-07 10:00:00 13.3 17 Sudoeste 27 Sudoeste 0 -- -- 96
2020-11-07 09:00:00 12.7 21 Sudoeste 30 Sudoeste 0 -- -- 99
2020-11-07 08:00:00 12.6 19 Sudoeste 27 Sudoeste 0 -- -- 98
2020-11-07 07:00:00 12.5 13 Sudoeste 23 Sudoeste 0.8 -- -- 98
2020-11-07 06:00:00 12.5 5 Sudoeste 21 Sudoeste 0 -- -- 97
2020-11-07 05:00:00 12.5 11 Sudoeste 17 Sudoeste 0 -- -- 96
2020-11-07 04:00:00 12.3 8 Sudoeste 15 Sudoeste 0 -- -- 96
2020-11-07 03:00:00 12.6 9 Sudoeste 21 Sudoeste 0 -- -- 93
2020-11-07 02:00:00 13.2 15 Sur 36 Sur 0 -- -- 90
2020-11-07 01:00:00 13 13 Sur 30 Sur 0 -- -- 95
2020-11-07 00:00:00 13.4 19 Sur 39 Sur 3.6 -- -- 94
2020-11-06 23:00:00 13.5 8 Sur 15 Sur 0.6 -- -- 90
2020-11-06 22:00:00 14.8 10 Sur 32 Sur 0 -- -- 81
2020-11-06 21:00:00 14.5 18 Sur 32 Sur 0 -- -- 82
2020-11-06 20:00:00 14.3 19 Sur 39 Sur 0 -- -- 84
2020-11-06 19:00:00 13.6 24 Sur 40 Sur 0.2 -- -- 88
2020-11-06 18:00:00 12.8 21 Sur 32 Sur 0.8 -- -- 97
2020-11-06 17:00:00 12.6 14 Sudoeste 122 Sur 7.2 -- -- 97
2020-11-06 16:00:00 16.5 4 Este 13 Nordeste 0 -- -- 83
2020-11-06 15:00:00 17.1 4 Este 12 Este 0 -- -- 78
2020-11-06 14:00:00 17.4 6 Este 9 Sudeste 0 -- -- 78
2020-11-06 13:00:00 16.2 3 Noroeste 18 Noroeste 0 -- -- 82
2020-11-06 12:00:00 15.8 13 Oeste 22 Sudoeste 0 -- -- 88
2020-11-06 11:00:00 14.7 4 Noroeste 13 Nordeste 0 -- -- 91
2020-11-06 10:00:00 13.7 14 Nordeste 30 Nordeste 0 -- -- 92
2020-11-06 09:00:00 13.4 10 Norte 28 Este 0.2 -- -- 93
2020-11-06 08:00:00 13.1 18 Este 29 Nordeste 0 -- -- 94
2020-11-06 07:00:00 13.2 18 Este 24 Nordeste 0 -- -- 93
2020-11-06 06:00:00 14.4 6 Sur 40 Sur 0.2 -- -- 88
2020-11-06 05:00:00 12.2 8 Este 14 Este 0.6 -- -- 99
2020-11-06 04:00:00 12.1 4 Nordeste 23 Nordeste 0 -- -- 99
2020-11-06 03:00:00 12.2 15 Este 22 Este 0 -- -- 99
2020-11-06 02:00:00 12.3 10 Este 19 Nordeste 0 -- -- 99
2020-11-06 01:00:00 12.5 13 Nordeste 23 Oeste 3.6 -- -- 98
2020-11-06 00:00:00 12.8 12 Noroeste 38 Oeste 4.8 -- -- 98
2020-11-05 23:00:00 13 20 Nordeste 27 Sudoeste 1.2 -- -- 98
2020-11-05 22:00:00 13.1 13 Nordeste 24 Nordeste 9.6 -- -- 97
2020-11-05 21:00:00 13.4 8 Nordeste 30 Nordeste 2 -- -- 96
2020-11-05 20:00:00 13.6 19 Nordeste 23 Nordeste 0 -- -- 94
2020-11-05 19:00:00 13.8 4 Noroeste 31 Este 1 -- -- 87
2020-11-05 18:00:00 15.4 24 Este 35 Este 0 -- -- 86
2020-11-05 17:00:00 16.8 23 Este 35 Este 0 -- -- 79
2020-11-05 16:00:00 18 18 Este 29 Este 0 -- -- 71
2020-11-05 15:00:00 17.4 21 Este 37 Este 0 -- -- 73
2020-11-05 14:00:00 17.1 21 Sudeste 35 Sudeste 0 -- -- 75
2020-11-05 13:00:00 16.4 20 Sudeste 36 Sudeste 0 -- -- 83
2020-11-05 12:00:00 14.9 13 Este 21 Este 0 -- -- 93
2020-11-05 11:00:00 14.2 14 Sudeste 21 Este 0 -- -- 95
2020-11-05 10:00:00 13.2 13 Este 19 Este 0 -- -- 100
2020-11-05 09:00:00 12.2 12 Este 16 Este 0.4 -- -- 99
2020-11-05 08:00:00 12.1 12 Este 24 Este 1.2 -- -- 99
2020-11-05 07:00:00 11.6 17 Este 27 Nordeste 1 -- -- 99
2020-11-05 06:00:00 11.5 12 Nordeste 15 Nordeste 1.6 -- -- 99
2020-11-05 05:00:00 11.3 12 Este 19 Este 3 -- -- 99
2020-11-05 04:00:00 11 11 Este 22 Nordeste 3 -- -- 99
2020-11-05 03:00:00 10.7 16 Nordeste 21 Nordeste 0.2 -- -- 99
2020-11-05 02:00:00 10.5 10 Nordeste 15 Este 2.6 -- -- 98
2020-11-05 01:00:00 10.5 10 Este 32 Este 5.6 -- -- 97
2020-11-05 00:00:00 10.6 24 Este 44 Este 8.4 -- -- 96
2020-11-04 23:00:00 11 44 Este 56 Este 6.2 -- -- 96
2020-11-04 22:00:00 12 16 Este 24 Este 4.6 -- -- 95
2020-11-04 21:00:00 12 13 Nordeste 18 Nordeste 0 -- -- 93
2020-11-04 20:00:00 11.2 12 Nordeste 15 Nordeste 0 -- -- 92
2020-11-04 19:00:00 12.7 13 Nordeste 19 Nordeste 0 -- -- 84
2020-11-04 18:00:00 14.2 10 Nordeste 21 Norte 0 -- -- 73
2020-11-04 17:00:00 15.4 13 Nordeste 23 Nordeste 0 -- -- 67
2020-11-04 16:00:00 15 15 Norte 22 Norte 0 -- -- 67
2020-11-04 15:00:00 14.9 12 Norte 23 Norte 0 -- -- 67
2020-11-04 14:00:00 14.7 17 Norte 23 Norte 0 -- -- 69
2020-11-04 13:00:00 14.5 14 Norte 23 Norte 0 -- -- 70
2020-11-04 12:00:00 13.7 14 Norte 20 Norte 0 -- -- 72
2020-11-04 11:00:00 13.3 10 Norte 20 Nordeste 0 -- -- 76
2020-11-04 10:00:00 12.5 13 Norte 19 Nordeste 0 -- -- 79
2020-11-04 09:00:00 11.6 10 Norte 19 Norte 0 -- -- 82
2020-11-04 08:00:00 11.4 14 Norte 20 Norte 0 -- -- 83
2020-11-04 07:00:00 10.9 0 Calma 10 Norte 0 -- -- 88
2020-11-04 06:00:00 11.3 6 Norte 10 Norte 0 -- -- 84
2020-11-04 05:00:00 10.5 0 Calma 5 Norte 0 -- -- 93
2020-11-04 04:00:00 10.2 4 Oeste 7 Oeste 0 -- -- 91
2020-11-04 03:00:00 11.7 3 Oeste 11 Norte 0 -- -- 83
2020-11-04 02:00:00 12.8 6 Norte 14 Norte 0 -- -- 78
2020-11-04 01:00:00 13.1 12 Norte 20 Norte 0 -- -- 77
2020-11-04 00:00:00 13.2 14 Norte 19 Norte 0 -- -- 77
2020-11-03 23:00:00 13.9 4 Norte 8 Norte 0 -- -- 73
2020-11-03 22:00:00 14.3 3 Norte 10 Norte 0 -- -- 70
2020-11-03 21:00:00 15.3 10 Norte 13 Norte 0 -- -- 67
2020-11-03 20:00:00 16.4 9 Norte 14 Norte 0 -- -- 65
2020-11-03 19:00:00 17.8 2 Nordeste 6 Nordeste 0 -- -- 63
2020-11-03 18:00:00 18.6 6 Nordeste 9 Nordeste 0 -- -- 59
2020-11-03 17:00:00 18.5 7 Nordeste 20 Nordeste 0 -- -- 57
2020-11-03 16:00:00 18.9 13 Norte 22 Norte 0 -- -- 55
2020-11-03 15:00:00 18.4 12 Norte 18 Norte 0 -- -- 55
2020-11-03 14:00:00 18.1 11 Norte 19 Norte 0 -- -- 52
2020-11-03 13:00:00 18.2 15 Norte 22 Norte 0 -- -- 54
2020-11-03 12:00:00 17.2 11 Norte 23 Norte 0 -- -- 61
2020-11-03 11:00:00 16.1 15 Nordeste 20 Nordeste 0 -- -- 72
2020-11-03 10:00:00 14.6 5 Nordeste 11 Noroeste 0 -- -- 86
2020-11-03 09:00:00 13.3 3 Noroeste 9 Noroeste 0 -- -- 90
2020-11-03 08:00:00 13 5 Oeste 14 Oeste 0 -- -- 89
2020-11-03 07:00:00 13.2 8 Oeste 12 Oeste 0 -- -- 92
2020-11-03 06:00:00 13.4 3 Oeste 11 Oeste 0 -- -- 93
2020-11-03 05:00:00 13.6 7 Oeste 14 Oeste 0 -- -- 93
2020-11-03 04:00:00 13.9 11 Oeste 17 Noroeste 0 -- -- 93
2020-11-03 03:00:00 15.5 9 Oeste 16 Noroeste 0 -- -- 95
2020-11-03 02:00:00 16.5 7 Noroeste 13 Noroeste 0 -- -- 95
2020-11-03 01:00:00 16.5 3 Oeste 5 Oeste 0 -- -- 94
2020-11-03 00:00:00 16.7 2 Sudoeste 4 Sudoeste 0 -- -- 93
2020-11-02 23:00:00 16.8 3 Sudoeste 4 Oeste 0 -- -- 91
2020-11-02 22:00:00 17.1 2 Sudoeste 4 Oeste 0 -- -- 89
2020-11-02 21:00:00 17.3 2 Sudoeste 5 Noroeste 0 -- -- 89
2020-11-02 20:00:00 17.6 5 Noroeste 12 Noroeste 0 -- -- 87
2020-11-02 19:00:00 18 7 Noroeste 14 Noroeste 0 -- -- 86
2020-11-02 18:00:00 18.7 6 Noroeste 10 Oeste 0 -- -- 84
2020-11-02 17:00:00 19.4 6 Noroeste 13 Noroeste 0 -- -- 80
2020-11-02 16:00:00 20 4 Noroeste 9 Noroeste 0 -- -- 76
2020-11-02 15:00:00 19.9 5 Norte 10 Nordeste 0 -- -- 77
2020-11-02 14:00:00 19.7 6 Nordeste 12 Nordeste 0 -- -- 77
2020-11-02 13:00:00 18.8 6 Nordeste 11 Nordeste 0 -- -- 83
2020-11-02 12:00:00 18.2 6 Nordeste 9 Norte 0 -- -- 87
2020-11-02 11:00:00 17.2 5 Norte 12 Norte 0 -- -- 90
2020-11-02 10:00:00 16.8 0 Calma 3 Nordeste 0 -- -- 93
2020-11-02 09:00:00 16.3 3 Nordeste 4 Nordeste 0 -- -- 93
2020-11-02 08:00:00 15.8 2 Este 4 Sudeste 0 -- -- 95
2020-11-02 07:00:00 15.7 0 Calma 4 Oeste 0 -- -- 95
2020-11-02 06:00:00 15.9 4 Noroeste 6 Noroeste 0 -- -- 94
2020-11-02 05:00:00 16.2 0 Calma 2 Noroeste 0 -- -- 93
2020-11-02 04:00:00 16.2 0 Calma 3 Nordeste 0 -- -- 92
2020-11-02 03:00:00 16.3 0 Calma 4 Norte 0 -- -- 91
2020-11-02 02:00:00 16.5 2 Noroeste 3 Sudeste 0 -- -- 90
2020-11-02 01:00:00 16.6 2 Sudeste 5 Sudeste 0 -- -- 90
2020-11-02 00:00:00 16.8 0 Calma 5 Norte 0 -- -- 89
2020-11-01 23:00:00 17 3 Norte 4 Norte 0 -- -- 88
2020-11-01 22:00:00 17.2 0 Calma -- -- 0 -- -- 87
2020-11-01 21:00:00 17.7 4 Noroeste 8 Noroeste 0 -- -- 85
2020-11-01 20:00:00 17.9 5 Norte 10 Noroeste 0 -- -- 84
2020-11-01 19:00:00 19 4 Noroeste 5 Norte 0 -- -- 78
2020-11-01 18:00:00 20 5 Norte 10 Noroeste 0 -- -- 75
2020-11-01 17:00:00 21.5 4 Noroeste 12 Noroeste 0 -- -- 69
2020-11-01 16:00:00 22 7 Noroeste 14 Noroeste 0 -- -- 68
2020-11-01 15:00:00 21.3 6 Oeste 12 Oeste 0 -- -- 65
2020-11-01 14:00:00 20.6 5 Noroeste 13 Norte 0 -- -- 72
2020-11-01 13:00:00 18 6 Norte 11 Norte 0 -- -- 87
2020-11-01 12:00:00 15.1 2 Oeste 8 Oeste 0 -- -- 99
2020-11-01 11:00:00 14.2 0 Calma 6 Oeste 0 -- -- 99
2020-11-01 10:00:00 13.6 5 Sudoeste 10 Sudoeste 0 -- -- 99
2020-11-01 09:00:00 13.2 5 Sudoeste 9 Sudoeste 0 -- -- 99
2020-11-01 08:00:00 13.1 6 Oeste 9 Oeste 0 -- -- 99
2020-11-01 07:00:00 13 5 Sudoeste 10 Oeste 0 -- -- 99
2020-11-01 06:00:00 12.7 7 Oeste 11 Oeste 0 -- -- 98
2020-11-01 05:00:00 13.2 5 Sudoeste 10 Oeste 0 -- -- 97
2020-11-01 04:00:00 13.4 5 Sudoeste 6 Sudoeste 0 -- -- 96
2020-11-01 03:00:00 13.8 7 Sur 8 Sur 0 -- -- 94
2020-11-01 02:00:00 14 5 Sudoeste 8 Sur 0 -- -- 92
2020-11-01 01:00:00 15.1 4 Sur 5 Sudoeste 0 -- -- 87
2020-11-01 00:00:00 15.8 4 Sudoeste 8 Oeste 0 -- -- 85
2020-10-31 23:00:00 16.5 4 Sudoeste 6 Sudoeste 0 -- -- 83
2020-10-31 22:00:00 17.3 3 Oeste 6 Oeste 0 -- -- 78
2020-10-31 21:00:00 18.1 4 Oeste 10 Noroeste 0 -- -- 74
2020-10-31 20:00:00 19.1 8 Noroeste 15 Noroeste 0 -- -- 71
2020-10-31 19:00:00 20.5 9 Noroeste 18 Noroeste 0 -- -- 65
2020-10-31 18:00:00 23 8 Noroeste 19 Noroeste 0 -- -- 55
2020-10-31 17:00:00 25.2 7 Noroeste 16 Noroeste 0 -- -- 46
2020-10-31 16:00:00 25.6 4 Noroeste 10 Oeste 0 -- -- 46
2020-10-31 15:00:00 25 4 Sudeste 12 Oeste 0 -- -- 45
2020-10-31 14:00:00 24.1 5 Norte 12 Norte 0 -- -- 50
2020-10-31 13:00:00 22.4 6 Norte 10 Norte 0 -- -- 60
2020-10-31 12:00:00 21.4 5 Norte 12 Norte 0 -- -- 63
2020-10-31 11:00:00 19.1 5 Este 15 Este 0 -- -- 72
2020-10-31 10:00:00 16.5 8 Sudeste 11 Sudeste 0 -- -- 82
2020-10-31 09:00:00 14 6 Nordeste 12 Nordeste 0 -- -- 90
2020-10-31 08:00:00 11.8 9 Este 14 Este 0 -- -- 91
2020-10-31 07:00:00 14.7 6 Este 14 Sudeste 0 -- -- 82
2020-10-31 06:00:00 14.5 12 Este 13 Este 0 -- -- 81
2020-10-31 05:00:00 15 6 Este 8 Este 0 -- -- 80
2020-10-31 04:00:00 14.9 5 Este 8 Sudeste 0 -- -- 80
2020-10-31 03:00:00 14.6 3 Sudeste 5 Sur 0 -- -- 80
2020-10-31 02:00:00 15.4 6 Sudeste 10 Sudeste 0 -- -- 78
2020-10-31 01:00:00 16.7 6 Este 7 Este 0 -- -- 72
2020-10-31 00:00:00 16.9 2 Este 8 Sudeste 0 -- -- 70
2020-10-30 23:00:00 17.6 5 Sudeste 9 Sudeste 0 -- -- 67
2020-10-30 22:00:00 18.4 3 Sudeste 5 Sudeste 0 -- -- 65
2020-10-30 21:00:00 18.8 0 Calma 5 Norte 0 -- -- 63
2020-10-30 20:00:00 19.5 4 Norte 8 Norte 0 -- -- 60
2020-10-30 19:00:00 20.2 6 Norte 8 Norte 0 -- -- 60
2020-10-30 18:00:00 22.7 5 Norte 11 Norte 0 -- -- 54
2020-10-30 17:00:00 24.3 7 Norte 12 Nordeste 0 -- -- 47
2020-10-30 16:00:00 25 3 Norte 14 Este 0 -- -- 46
2020-10-30 15:00:00 24.7 3 Nordeste 15 Norte 0 -- -- 48
2020-10-30 14:00:00 23.4 6 Norte 15 Nordeste 0 -- -- 55
2020-10-30 13:00:00 21.9 10 Nordeste 19 Nordeste 0 -- -- 62
2020-10-30 12:00:00 19.7 12 Nordeste 18 Nordeste 0 -- -- 72
2020-10-30 11:00:00 16.6 14 Nordeste 19 Nordeste 0 -- -- 85
2020-10-30 10:00:00 13.8 13 Nordeste 18 Nordeste 0 -- -- 99
2020-10-30 09:00:00 12.4 12 Nordeste 16 Nordeste 0 -- -- 100
2020-10-30 08:00:00 10.4 12 Este 14 Nordeste 0 -- -- 99
2020-10-30 07:00:00 10.9 10 Este 13 Nordeste 0 -- -- 99
2020-10-30 06:00:00 11.5 10 Nordeste 14 Nordeste 0 -- -- 99
2020-10-30 05:00:00 12 12 Nordeste 14 Nordeste 0 -- -- 98
2020-10-30 04:00:00 12.6 8 Nordeste 13 Nordeste 0 -- -- 97
2020-10-30 03:00:00 12.9 10 Nordeste 13 Nordeste 0 -- -- 97
2020-10-30 02:00:00 13.3 9 Nordeste 12 Este 0 -- -- 95
2020-10-30 01:00:00 13.9 9 Nordeste 14 Este 0 -- -- 93
2020-10-30 00:00:00 15 13 Nordeste 17 Este 0 -- -- 89